KCMD Airport (Cullman Rgnl-Folsom Field) Information

FAA: CMD - ICAO: KCMD

KCMD Airport Location

State Alabama
County Cullman
City Cullman
KCMD Airport is 5 miles north of Cullman, AL.
Latitude 34-16-07.3000N
Longitude 086-51-28.9000W
Elevation 969ft

KCMD Airport METARs

METAR KCMD 240935Z AUTO 00000KT 10SM CLR 08/08 A3013 RMK AO2 T00830076
Altimeter 30.13"
Temperature 8.3°C (46.9°F)
Wind 0° at 0KT
Clouds Skies are clear.
Visibility 10.0mi
Time observed: 2021-09-24T09:35:00Z

KCMD Airport Details

Status Operational
Activation December 1958
Ownership Public
Usage Public
Chart ATLANTA
ATC on-site No
Beacon schedule N/A
Beacon color clear green

KCMD Airport Contacts

Owner CITY/COUNTY OF CULLMAN
Owner address PO BOX 278, CULLMAN, AL 35056
Owner phone 256-775-7102
Manager BEN HARRISON
Manager address 231 CO RD 1360, VINEMONT, AL 35179
Manager phone 256-775-1011

KCMD Airport (Cullman Rgnl-Folsom Field) Radio Frequencies

KCMD (Airport) Radio Frequencies

UNICOM 122.8
Common traffic advisory frequency (CTAF) 122.8